sensor_id;sensor_type;location;lat;lon;timestamp;pressure;altitude;pressure_sealevel;temperature;humidity
55679;BME280;41573;51.446;-2.018;2023-01-01T00:01:13;92710.50;;;9.26;100.00
55679;BME280;41573;51.446;-2.018;2023-01-01T00:03:39;92740.72;;;9.25;100.00
55679;BME280;41573;51.446;-2.018;2023-01-01T00:06:07;92774.44;;;9.19;100.00
55679;BME280;41573;51.446;-2.018;2023-01-01T00:08:33;92820.06;;;9.21;100.00
55679;BME280;41573;51.446;-2.018;2023-01-01T00:11:05;92853.22;;;9.19;100.00
55679;BME280;41573;51.446;-2.018;2023-01-01T00:13:32;92870.75;;;9.14;100.00
55679;BME280;41573;51.446;-2.018;2023-01-01T00:16:06;92894.84;;;9.18;100.00
55679;BME280;41573;51.446;-2.018;2023-01-01T00:18:32;92955.59;;;9.20;100.00
55679;BME280;41573;51.446;-2.018;2023-01-01T00:21:14;92996.16;;;9.20;100.00
55679;BME280;41573;51.446;-2.018;2023-01-01T00:23:39;93048.44;;;9.14;100.00
55679;BME280;41573;51.446;-2.018;2023-01-01T00:26:13;93075.72;;;9.15;100.00
55679;BME280;41573;51.446;-2.018;2023-01-01T00:28:39;93125.88;;;9.11;100.00
55679;BME280;41573;51.446;-2.018;2023-01-01T00:31:09;93164.59;;;9.12;100.00
55679;BME280;41573;51.446;-2.018;2023-01-01T00:33:34;93226.38;;;9.03;100.00
55679;BME280;41573;51.446;-2.018;2023-01-01T00:36:11;93250.75;;;8.94;100.00
55679;BME280;41573;51.446;-2.018;2023-01-01T00:38:37;93312.53;;;8.90;100.00
55679;BME280;41573;51.446;-2.018;2023-01-01T00:41:03;93323.63;;;8.87;100.00
55679;BME280;41573;51.446;-2.018;2023-01-01T00:43:29;93360.19;;;8.79;100.00
55679;BME280;41573;51.446;-2.018;2023-01-01T00:45:54;93362.56;;;8.76;100.00
55679;BME280;41573;51.446;-2.018;2023-01-01T00:48:20;93380.59;;;8.79;100.00
55679;BME280;41573;51.446;-2.018;2023-01-01T00:50:47;93429.66;;;8.87;100.00
55679;BME280;41573;51.446;-2.018;2023-01-01T00:53:13;93441.34;;;8.86;100.00
55679;BME280;41573;51.446;-2.018;2023-01-01T00:55:39;93467.03;;;8.80;100.00
55679;BME280;41573;51.446;-2.018;2023-01-01T00:58:05;93507.84;;;8.79;100.00
55679;BME280;41573;51.446;-2.018;2023-01-01T01:00:30;93547.25;;;8.70;100.00
55679;BME280;41573;51.446;-2.018;2023-01-01T01:02:56;93581.47;;;8.72;100.00
55679;BME280;41573;51.446;-2.018;2023-01-01T01:05:21;93614.81;;;8.68;100.00
55679;BME280;41573;51.446;-2.018;2023-01-01T01:07:46;93638.38;;;8.64;100.00
55679;BME280;41573;51.446;-2.018;2023-01-01T01:10:12;93683.97;;;8.66;100.00
55679;BME280;41573;51.446;-2.018;2023-01-01T01:12:38;93719.47;;;8.65;100.00
55679;BME280;41573;51.446;-2.018;2023-01-01T01:15:04;93763.50;;;8.66;100.00
55679;BME280;41573;51.446;-2.018;2023-01-01T01:17:30;93818.84;;;8.62;100.00
55679;BME280;41573;51.446;-2.018;2023-01-01T01:19:55;93848.81;;;8.63;100.00
55679;BME280;41573;51.446;-2.018;2023-01-01T01:22:21;93885.09;;;8.62;100.00
55679;BME280;41573;51.446;-2.018;2023-01-01T01:24:46;93921.91;;;8.59;100.00
55679;BME280;41573;51.446;-2.018;2023-01-01T01:27:12;93961.66;;;8.59;100.00
55679;BME280;41573;51.446;-2.018;2023-01-01T01:29:37;94000.53;;;8.53;100.00
55679;BME280;41573;51.446;-2.018;2023-01-01T01:32:03;94033.94;;;8.54;100.00
55679;BME280;41573;51.446;-2.018;2023-01-01T01:34:28;94062.84;;;8.56;100.00
55679;BME280;41573;51.446;-2.018;2023-01-01T01:36:54;94099.38;;;8.54;100.00
55679;BME280;41573;51.446;-2.018;2023-01-01T01:39:20;94141.47;;;8.50;100.00
55679;BME280;41573;51.446;-2.018;2023-01-01T01:41:45;94164.47;;;8.50;100.00
55679;BME280;41573;51.446;-2.018;2023-01-01T01:47:16;94227.53;;;8.48;100.00
55679;BME280;41573;51.446;-2.018;2023-01-01T01:49:45;94249.53;;;8.48;100.00
55679;BME280;41573;51.446;-2.018;2023-01-01T01:52:11;94273.13;;;8.50;100.00
55679;BME280;41573;51.446;-2.018;2023-01-01T01:54:37;94308.84;;;8.47;100.00
55679;BME280;41573;51.446;-2.018;2023-01-01T01:57:07;94327.03;;;8.43;100.00
55679;BME280;41573;51.446;-2.018;2023-01-01T01:59:41;94374.63;;;8.38;100.00
55679;BME280;41573;51.446;-2.018;2023-01-01T02:04:49;94416.31;;;8.31;100.00
55679;BME280;41573;51.446;-2.018;2023-01-01T02:07:14;94427.97;;;8.30;100.00
55679;BME280;41573;51.446;-2.018;2023-01-01T02:09:41;94446.38;;;8.25;100.00
55679;BME280;41573;51.446;-2.018;2023-01-01T02:12:06;94465.06;;;8.30;100.00
55679;BME280;41573;51.446;-2.018;2023-01-01T02:14:32;94487.50;;;8.27;100.00
55679;BME280;41573;51.446;-2.018;2023-01-01T02:17:08;94495.69;;;8.26;100.00
55679;BME280;41573;51.446;-2.018;2023-01-01T02:28:36;94532.28;;;8.17;100.00
55679;BME280;41573;51.446;-2.018;2023-01-01T02:31:04;94555.91;;;8.19;100.00
55679;BME280;41573;51.446;-2.018;2023-01-01T02:33:31;94559.28;;;8.26;100.00
55679;BME280;41573;51.446;-2.018;2023-01-01T02:36:00;94571.03;;;8.30;100.00
55679;BME280;41573;51.446;-2.018;2023-01-01T02:38:40;94583.69;;;8.28;100.00
55679;BME280;41573;51.446;-2.018;2023-01-01T02:41:14;94593.81;;;8.31;100.00
55679;BME280;41573;51.446;-2.018;2023-01-01T02:43:44;94595.75;;;8.24;100.00
55679;BME280;41573;51.446;-2.018;2023-01-01T02:46:11;94615.25;;;8.29;100.00
55679;BME280;41573;51.446;-2.018;2023-01-01T02:48:40;94631.44;;;8.21;100.00
55679;BME280;41573;51.446;-2.018;2023-01-01T02:51:28;94635.06;;;8.27;100.00
55679;BME280;41573;51.446;-2.018;2023-01-01T02:54:04;94649.78;;;8.23;100.00
55679;BME280;41573;51.446;-2.018;2023-01-01T03:02:09;94654.88;;;8.24;100.00
55679;BME280;41573;51.446;-2.018;2023-01-01T03:10:50;94660.59;;;8.21;100.00
55679;BME280;41573;51.446;-2.018;2023-01-01T03:16:07;94686.50;;;8.19;100.00
55679;BME280;41573;51.446;-2.018;2023-01-01T03:21:57;94680.75;;;8.22;100.00
55679;BME280;41573;51.446;-2.018;2023-01-01T03:24:30;94706.00;;;8.25;100.00
55679;BME280;41573;51.446;-2.018;2023-01-01T03:26:59;94725.56;;;8.24;100.00
55679;BME280;41573;51.446;-2.018;2023-01-01T03:29:29;94727.66;;;8.22;100.00
55679;BME280;41573;51.446;-2.018;2023-01-01T03:31:57;94738.59;;;8.25;100.00
55679;BME280;41573;51.446;-2.018;2023-01-01T03:34:30;94750.44;;;8.23;100.00
55679;BME280;41573;51.446;-2.018;2023-01-01T03:36:59;94752.44;;;8.27;100.00
55679;BME280;41573;51.446;-2.018;2023-01-01T03:39:37;94755.69;;;8.29;100.00
55679;BME280;41573;51.446;-2.018;2023-01-01T03:47:36;94785.03;;;8.28;100.00
55679;BME280;41573;51.446;-2.018;2023-01-01T03:50:02;94799.31;;;8.27;100.00
55679;BME280;41573;51.446;-2.018;2023-01-01T03:55:04;94823.31;;;8.32;100.00
55679;BME280;41573;51.446;-2.018;2023-01-01T04:00:26;94844.91;;;8.36;100.00
55679;BME280;41573;51.446;-2.018;2023-01-01T04:03:01;94886.03;;;8.38;100.00
55679;BME280;41573;51.446;-2.018;2023-01-01T04:05:29;94880.94;;;8.37;100.00
55679;BME280;41573;51.446;-2.018;2023-01-01T04:07:56;94911.72;;;8.44;100.00
55679;BME280;41573;51.446;-2.018;2023-01-01T04:10:24;94957.34;;;8.47;100.00
55679;BME280;41573;51.446;-2.018;2023-01-01T04:12:55;95015.88;;;8.45;100.00
55679;BME280;41573;51.446;-2.018;2023-01-01T04:15:23;95046.47;;;8.34;100.00
55679;BME280;41573;51.446;-2.018;2023-01-01T04:17:49;95126.38;;;8.38;100.00
55679;BME280;41573;51.446;-2.018;2023-01-01T04:20:15;95184.50;;;8.33;100.00
55679;BME280;41573;51.446;-2.018;2023-01-01T04:22:41;95228.16;;;8.23;100.00
55679;BME280;41573;51.446;-2.018;2023-01-01T04:25:07;95262.41;;;8.18;100.00
55679;BME280;41573;51.446;-2.018;2023-01-01T04:27:32;95300.72;;;8.16;100.00
55679;BME280;41573;51.446;-2.018;2023-01-01T04:29:58;95327.41;;;8.14;100.00
55679;BME280;41573;51.446;-2.018;2023-01-01T04:32:23;95342.13;;;8.03;100.00
55679;BME280;41573;51.446;-2.018;2023-01-01T04:34:49;95377.56;;;8.02;100.00
55679;BME280;41573;51.446;-2.018;2023-01-01T04:37:15;95403.84;;;7.97;100.00
55679;BME280;41573;51.446;-2.018;2023-01-01T04:39:40;95433.19;;;7.96;100.00
55679;BME280;41573;51.446;-2.018;2023-01-01T04:42:06;95470.28;;;7.89;100.00
55679;BME280;41573;51.446;-2.018;2023-01-01T04:44:31;95512.66;;;7.89;100.00
55679;BME280;41573;51.446;-2.018;2023-01-01T04:46:57;95529.72;;;7.80;100.00
55679;BME280;41573;51.446;-2.018;2023-01-01T04:49:22;95577.19;;;7.81;100.00
55679;BME280;41573;51.446;-2.018;2023-01-01T04:51:48;95612.59;;;7.80;100.00
55679;BME280;41573;51.446;-2.018;2023-01-01T04:54:13;95633.97;;;7.79;100.00
55679;BME280;41573;51.446;-2.018;2023-01-01T04:56:39;95681.19;;;7.68;100.00
55679;BME280;41573;51.446;-2.018;2023-01-01T04:59:08;95726.84;;;7.70;100.00
55679;BME280;41573;51.446;-2.018;2023-01-01T05:04:18;95786.63;;;7.58;100.00
55679;BME280;41573;51.446;-2.018;2023-01-01T05:06:44;95797.41;;;7.56;100.00
55679;BME280;41573;51.446;-2.018;2023-01-01T05:09:10;95795.88;;;7.47;100.00
55679;BME280;41573;51.446;-2.018;2023-01-01T05:11:36;95825.19;;;7.46;100.00
55679;BME280;41573;51.446;-2.018;2023-01-01T05:14:02;95809.63;;;7.36;100.00
55679;BME280;41573;51.446;-2.018;2023-01-01T05:16:30;95824.69;;;7.35;100.00
55679;BME280;41573;51.446;-2.018;2023-01-01T05:18:56;95822.22;;;7.34;100.00
55679;BME280;41573;51.446;-2.018;2023-01-01T05:21:24;95808.03;;;7.20;100.00
55679;BME280;41573;51.446;-2.018;2023-01-01T05:23:57;95821.84;;;7.15;100.00
55679;BME280;41573;51.446;-2.018;2023-01-01T05:26:27;95801.22;;;7.11;100.00
55679;BME280;41573;51.446;-2.018;2023-01-01T05:28:54;95785.34;;;7.11;100.00
55679;BME280;41573;51.446;-2.018;2023-01-01T05:31:23;95765.03;;;7.11;100.00
55679;BME280;41573;51.446;-2.018;2023-01-01T05:33:49;95743.00;;;7.04;100.00
55679;BME280;41573;51.446;-2.018;2023-01-01T05:36:22;95715.50;;;7.05;100.00
55679;BME280;41573;51.446;-2.018;2023-01-01T05:38:48;95694.53;;;7.03;100.00
55679;BME280;41573;51.446;-2.018;2023-01-01T05:41:15;95656.28;;;6.99;100.00
55679;BME280;41573;51.446;-2.018;2023-01-01T05:43:41;95629.84;;;6.99;100.00
55679;BME280;41573;51.446;-2.018;2023-01-01T05:46:09;95601.38;;;7.01;100.00
55679;BME280;41573;51.446;-2.018;2023-01-01T05:48:35;95559.06;;;7.01;100.00
55679;BME280;41573;51.446;-2.018;2023-01-01T05:51:13;95510.25;;;7.11;100.00
55679;BME280;41573;51.446;-2.018;2023-01-01T05:53:39;95469.19;;;7.15;100.00
55679;BME280;41573;51.446;-2.018;2023-01-01T05:56:05;95451.91;;;7.19;100.00
55679;BME280;41573;51.446;-2.018;2023-01-01T05:58:32;95409.25;;;7.35;100.00
55679;BME280;41573;51.446;-2.018;2023-01-01T06:04:03;95319.91;;;7.64;100.00
55679;BME280;41573;51.446;-2.018;2023-01-01T06:06:30;95317.47;;;7.69;100.00
55679;BME280;41573;51.446;-2.018;2023-01-01T06:08:59;95302.41;;;7.76;100.00
55679;BME280;41573;51.446;-2.018;2023-01-01T06:11:26;95293.00;;;7.87;100.00
55679;BME280;41573;51.446;-2.018;2023-01-01T06:13:57;95294.66;;;7.88;100.00
55679;BME280;41573;51.446;-2.018;2023-01-01T06:16:24;95300.34;;;7.79;100.00
55679;BME280;41573;51.446;-2.018;2023-01-01T06:18:49;95273.28;;;7.83;100.00
55679;BME280;41573;51.446;-2.018;2023-01-01T06:21:25;95235.38;;;7.89;100.00
55679;BME280;41573;51.446;-2.018;2023-01-01T06:23:51;95230.28;;;7.88;100.00
55679;BME280;41573;51.446;-2.018;2023-01-01T06:26:25;95211.56;;;7.83;100.00
55679;BME280;41573;51.446;-2.018;2023-01-01T06:28:51;95193.03;;;7.76;100.00
55679;BME280;41573;51.446;-2.018;2023-01-01T06:31:19;95180.63;;;7.76;100.00
55679;BME280;41573;51.446;-2.018;2023-01-01T06:33:45;95122.38;;;7.76;100.00
55679;BME280;41573;51.446;-2.018;2023-01-01T06:36:13;95099.78;;;7.74;100.00
55679;BME280;41573;51.446;-2.018;2023-01-01T06:38:41;95088.16;;;7.75;100.00
55679;BME280;41573;51.446;-2.018;2023-01-01T06:41:10;95062.50;;;7.69;100.00
55679;BME280;41573;51.446;-2.018;2023-01-01T06:43:36;95061.72;;;7.62;100.00
55679;BME280;41573;51.446;-2.018;2023-01-01T06:46:07;95033.22;;;7.64;100.00
55679;BME280;41573;51.446;-2.018;2023-01-01T06:48:38;94999.56;;;7.78;100.00
55679;BME280;41573;51.446;-2.018;2023-01-01T06:51:20;94986.69;;;7.88;100.00
55679;BME280;41573;51.446;-2.018;2023-01-01T06:53:47;95001.56;;;7.89;100.00
55679;BME280;41573;51.446;-2.018;2023-01-01T06:56:14;95029.81;;;7.95;100.00
55679;BME280;41573;51.446;-2.018;2023-01-01T06:58:40;95031.66;;;7.94;100.00
55679;BME280;41573;51.446;-2.018;2023-01-01T07:01:13;95098.88;;;8.00;100.00
55679;BME280;41573;51.446;-2.018;2023-01-01T07:03:40;95139.81;;;7.98;100.00
55679;BME280;41573;51.446;-2.018;2023-01-01T07:06:06;95198.50;;;7.94;100.00
55679;BME280;41573;51.446;-2.018;2023-01-01T07:08:32;95239.88;;;7.89;100.00
55679;BME280;41573;51.446;-2.018;2023-01-01T07:10:57;95281.03;;;7.85;100.00
55679;BME280;41573;51.446;-2.018;2023-01-01T07:13:27;95337.03;;;7.88;100.00
55679;BME280;41573;51.446;-2.018;2023-01-01T07:15:53;95365.75;;;7.85;100.00
55679;BME280;41573;51.446;-2.018;2023-01-01T07:18:20;95416.47;;;7.88;100.00
55679;BME280;41573;51.446;-2.018;2023-01-01T07:20:54;95442.56;;;7.85;100.00
55679;BME280;41573;51.446;-2.018;2023-01-01T07:23:21;95491.00;;;7.79;100.00
55679;BME280;41573;51.446;-2.018;2023-01-01T07:25:50;95511.56;;;7.76;100.00
55679;BME280;41573;51.446;-2.018;2023-01-01T07:28:16;95529.09;;;7.78;100.00
55679;BME280;41573;51.446;-2.018;2023-01-01T07:30:42;95551.50;;;7.82;100.00
55679;BME280;41573;51.446;-2.018;2023-01-01T07:33:12;95574.13;;;7.84;100.00
55679;BME280;41573;51.446;-2.018;2023-01-01T07:35:38;95596.50;;;7.82;100.00
55679;BME280;41573;51.446;-2.018;2023-01-01T07:38:03;95622.84;;;7.83;100.00
55679;BME280;41573;51.446;-2.018;2023-01-01T07:40:28;95651.75;;;7.85;100.00
55679;BME280;41573;51.446;-2.018;2023-01-01T07:42:54;95662.72;;;7.82;100.00
55679;BME280;41573;51.446;-2.018;2023-01-01T07:45:19;95681.84;;;7.77;100.00
55679;BME280;41573;51.446;-2.018;2023-01-01T07:47:49;95704.22;;;7.74;100.00
55679;BME280;41573;51.446;-2.018;2023-01-01T07:50:16;95728.69;;;7.76;100.00
55679;BME280;41573;51.446;-2.018;2023-01-01T07:52:42;95745.19;;;7.72;100.00
55679;BME280;41573;51.446;-2.018;2023-01-01T07:55:12;95751.91;;;7.74;100.00
55679;BME280;41573;51.446;-2.018;2023-01-01T07:57:38;95760.81;;;7.67;100.00
55679;BME280;41573;51.446;-2.018;2023-01-01T08:00:04;95762.66;;;7.66;100.00
55679;BME280;41573;51.446;-2.018;2023-01-01T08:02:30;95775.19;;;7.57;100.00
55679;BME280;41573;51.446;-2.018;2023-01-01T08:04:55;95784.97;;;7.57;100.00
55679;BME280;41573;51.446;-2.018;2023-01-01T08:07:21;95784.53;;;7.53;100.00
55679;BME280;41573;51.446;-2.018;2023-01-01T08:09:46;95776.78;;;7.52;100.00
55679;BME280;41573;51.446;-2.018;2023-01-01T08:12:11;95774.09;;;7.45;100.00
55679;BME280;41573;51.446;-2.018;2023-01-01T08:14:37;95765.09;;;7.39;100.00
55679;BME280;41573;51.446;-2.018;2023-01-01T08:17:02;95753.47;;;7.40;100.00
55679;BME280;41573;51.446;-2.018;2023-01-01T08:19:30;95749.41;;;7.38;100.00
55679;BME280;41573;51.446;-2.018;2023-01-01T08:21:56;95737.97;;;7.37;100.00
55679;BME280;41573;51.446;-2.018;2023-01-01T08:24:21;95720.28;;;7.38;100.00
55679;BME280;41573;51.446;-2.018;2023-01-01T08:26:48;95714.53;;;7.34;100.00
55679;BME280;41573;51.446;-2.018;2023-01-01T08:29:14;95704.81;;;7.35;100.00
55679;BME280;41573;51.446;-2.018;2023-01-01T08:31:40;95693.38;;;7.34;100.00
55679;BME280;41573;51.446;-2.018;2023-01-01T08:34:05;95693.63;;;7.39;100.00
55679;BME280;41573;51.446;-2.018;2023-01-01T08:36:31;95697.09;;;7.40;100.00
55679;BME280;41573;51.446;-2.018;2023-01-01T08:38:56;95674.19;;;7.54;100.00
55679;BME280;41573;51.446;-2.018;2023-01-01T08:41:22;95652.66;;;7.64;100.00
55679;BME280;41573;51.446;-2.018;2023-01-01T08:43:47;95647.59;;;7.69;100.00
55679;BME280;41573;51.446;-2.018;2023-01-01T08:46:13;95626.44;;;7.75;100.00
55679;BME280;41573;51.446;-2.018;2023-01-01T08:48:38;95613.44;;;7.81;100.00
55679;BME280;41573;51.446;-2.018;2023-01-01T08:51:04;95603.50;;;7.89;100.00
55679;BME280;41573;51.446;-2.018;2023-01-01T08:53:30;95605.94;;;7.91;100.00
55679;BME280;41573;51.446;-2.018;2023-01-01T08:56:04;95602.69;;;7.89;100.00
55679;BME280;41573;51.446;-2.018;2023-01-01T08:58:31;95619.78;;;7.93;100.00
55679;BME280;41573;51.446;-2.018;2023-01-01T09:00:58;95624.72;;;7.96;100.00
55679;BME280;41573;51.446;-2.018;2023-01-01T09:03:24;95645.47;;;7.92;100.00
55679;BME280;41573;51.446;-2.018;2023-01-01T09:05:50;95653.84;;;7.96;100.00
55679;BME280;41573;51.446;-2.018;2023-01-01T09:08:16;95644.50;;;8.00;100.00
55679;BME280;41573;51.446;-2.018;2023-01-01T09:10:42;95649.16;;;7.98;100.00
55679;BME280;41573;51.446;-2.018;2023-01-01T09:13:12;95658.91;;;7.91;100.00
55679;BME280;41573;51.446;-2.018;2023-01-01T09:15:38;95671.75;;;7.94;100.00
55679;BME280;41573;51.446;-2.018;2023-01-01T09:18:04;95681.34;;;7.95;100.00
55679;BME280;41573;51.446;-2.018;2023-01-01T09:20:30;95663.84;;;8.01;100.00
55679;BME280;41573;51.446;-2.018;2023-01-01T09:22:55;95662.41;;;7.98;100.00
55679;BME280;41573;51.446;-2.018;2023-01-01T09:25:21;95652.44;;;8.00;100.00
55679;BME280;41573;51.446;-2.018;2023-01-01T09:27:46;95648.75;;;8.01;100.00
55679;BME280;41573;51.446;-2.018;2023-01-01T09:30:12;95645.94;;;8.09;100.00
55679;BME280;41573;51.446;-2.018;2023-01-01T09:32:38;95635.78;;;8.13;100.00
55679;BME280;41573;51.446;-2.018;2023-01-01T09:35:04;95634.53;;;8.16;100.00
55679;BME280;41573;51.446;-2.018;2023-01-01T09:37:29;95632.53;;;8.18;100.00
55679;BME280;41573;51.446;-2.018;2023-01-01T09:39:55;95629.28;;;8.22;100.00
55679;BME280;41573;51.446;-2.018;2023-01-01T09:42:44;95621.53;;;8.21;100.00
55679;BME280;41573;51.446;-2.018;2023-01-01T09:45:30;95617.88;;;8.22;100.00
55679;BME280;41573;51.446;-2.018;2023-01-01T09:48:10;95596.66;;;8.28;100.00
55679;BME280;41573;51.446;-2.018;2023-01-01T09:50:41;95577.94;;;8.37;100.00
55679;BME280;41573;51.446;-2.018;2023-01-01T09:56:02;95548.22;;;8.48;100.00
55679;BME280;41573;51.446;-2.018;2023-01-01T09:58:34;95562.09;;;8.57;100.00
55679;BME280;41573;51.446;-2.018;2023-01-01T10:07:30;95540.06;;;8.70;100.00
55679;BME280;41573;51.446;-2.018;2023-01-01T10:10:15;95546.19;;;8.70;100.00
55679;BME280;41573;51.446;-2.018;2023-01-01T10:15:19;95538.44;;;8.75;100.00
55679;BME280;41573;51.446;-2.018;2023-01-01T10:17:49;95517.22;;;8.75;100.00
55679;BME280;41573;51.446;-2.018;2023-01-01T10:20:26;95506.22;;;8.78;100.00
55679;BME280;41573;51.446;-2.018;2023-01-01T10:23:00;95509.69;;;8.86;100.00
55679;BME280;41573;51.446;-2.018;2023-01-01T10:25:30;95488.22;;;8.94;100.00
55679;BME280;41573;51.446;-2.018;2023-01-01T10:28:04;95479.25;;;9.02;100.00
55679;BME280;41573;51.446;-2.018;2023-01-01T10:30:31;95470.22;;;9.09;100.00
55679;BME280;41573;51.446;-2.018;2023-01-01T10:32:57;95459.38;;;9.18;100.00
55679;BME280;41573;51.446;-2.018;2023-01-01T10:35:27;95440.97;;;9.29;100.00
55679;BME280;41573;51.446;-2.018;2023-01-01T10:38:00;95457.50;;;9.38;100.00
55679;BME280;41573;51.446;-2.018;2023-01-01T10:40:28;95462.34;;;9.48;100.00
55679;BME280;41573;51.446;-2.018;2023-01-01T10:42:58;95470.69;;;9.58;100.00
55679;BME280;41573;51.446;-2.018;2023-01-01T10:45:33;95485.16;;;9.62;100.00
55679;BME280;41573;51.446;-2.018;2023-01-01T10:48:19;95499.00;;;9.71;100.00
55679;BME280;41573;51.446;-2.018;2023-01-01T11:01:12;95610.56;;;9.78;100.00
55679;BME280;41573;51.446;-2.018;2023-01-01T11:03:59;95622.78;;;9.86;100.00
55679;BME280;41573;51.446;-2.018;2023-01-01T11:06:35;95649.34;;;9.86;100.00
55679;BME280;41573;51.446;-2.018;2023-01-01T11:09:04;95655.06;;;9.82;100.00
55679;BME280;41573;51.446;-2.018;2023-01-01T11:11:45;95682.25;;;9.84;100.00
55679;BME280;41573;51.446;-2.018;2023-01-01T11:16:44;95744.16;;;9.92;100.00
55679;BME280;41573;51.446;-2.018;2023-01-01T11:19:20;95774.00;;;9.94;100.00
55679;BME280;41573;51.446;-2.018;2023-01-01T11:21:46;95812.22;;;9.93;100.00
55679;BME280;41573;51.446;-2.018;2023-01-01T11:24:19;95850.00;;;9.95;100.00
55679;BME280;41573;51.446;-2.018;2023-01-01T11:26:45;95884.75;;;9.93;100.00
55679;BME280;41573;51.446;-2.018;2023-01-01T11:29:27;95928.31;;;9.92;100.00
55679;BME280;41573;51.446;-2.018;2023-01-01T11:31:54;95987.59;;;9.93;100.00
55679;BME280;41573;51.446;-2.018;2023-01-01T11:34:31;96034.59;;;9.92;100.00
55679;BME280;41573;51.446;-2.018;2023-01-01T11:37:14;96087.94;;;9.91;100.00
55679;BME280;41573;51.446;-2.018;2023-01-01T11:39:44;96126.75;;;9.85;100.00
55679;BME280;41573;51.446;-2.018;2023-01-01T11:42:27;96179.31;;;9.90;100.00
55679;BME280;41573;51.446;-2.018;2023-01-01T11:45:07;96190.94;;;9.89;100.00
55679;BME280;41573;51.446;-2.018;2023-01-01T11:47:41;96208.88;;;9.80;100.00
55679;BME280;41573;51.446;-2.018;2023-01-01T11:55:17;96261.44;;;9.84;100.00
55679;BME280;41573;51.446;-2.018;2023-01-01T11:57:53;96266.13;;;9.82;100.00
55679;BME280;41573;51.446;-2.018;2023-01-01T12:00:21;96275.09;;;9.81;100.00
55679;BME280;41573;51.446;-2.018;2023-01-01T12:02:56;96270.59;;;9.82;100.00
55679;BME280;41573;51.446;-2.018;2023-01-01T12:05:26;96299.81;;;9.75;100.00
55679;BME280;41573;51.446;-2.018;2023-01-01T12:08:02;96284.25;;;9.72;100.00
55679;BME280;41573;51.446;-2.018;2023-01-01T12:10:43;96294.50;;;9.75;100.00
55679;BME280;41573;51.446;-2.018;2023-01-01T12:13:16;96287.13;;;9.77;100.00
55679;BME280;41573;51.446;-2.018;2023-01-01T12:16:18;96283.66;;;9.77;100.00
55679;BME280;41573;51.446;-2.018;2023-01-01T12:19:00;96297.16;;;9.75;100.00
55679;BME280;41573;51.446;-2.018;2023-01-01T12:21:27;96332.69;;;9.74;100.00
55679;BME280;41573;51.446;-2.018;2023-01-01T12:23:54;96333.50;;;9.75;100.00
55679;BME280;41573;51.446;-2.018;2023-01-01T12:26:31;96335.72;;;9.71;100.00
55679;BME280;41573;51.446;-2.018;2023-01-01T12:29:36;96318.78;;;9.72;100.00
55679;BME280;41573;51.446;-2.018;2023-01-01T12:32:07;96313.84;;;9.69;100.00
55679;BME280;41573;51.446;-2.018;2023-01-01T12:37:49;96308.16;;;9.72;100.00
55679;BME280;41573;51.446;-2.018;2023-01-01T12:40:29;96291.63;;;9.77;100.00
55679;BME280;41573;51.446;-2.018;2023-01-01T12:43:17;96288.41;;;9.81;100.00
55679;BME280;41573;51.446;-2.018;2023-01-01T12:48:47;96244.88;;;9.82;100.00
55679;BME280;41573;51.446;-2.018;2023-01-01T13:00:10;96219.38;;;9.88;100.00
55679;BME280;41573;51.446;-2.018;2023-01-01T13:02:40;96209.53;;;9.89;100.00
55679;BME280;41573;51.446;-2.018;2023-01-01T13:05:21;96208.53;;;9.90;100.00
55679;BME280;41573;51.446;-2.018;2023-01-01T13:07:51;96204.47;;;9.94;100.00
55679;BME280;41573;51.446;-2.018;2023-01-01T13:10:26;96202.44;;;9.96;100.00
55679;BME280;41573;51.446;-2.018;2023-01-01T13:12:54;96209.78;;;9.94;100.00
55679;BME280;41573;51.446;-2.018;2023-01-01T13:20:45;96192.63;;;9.96;100.00
55679;BME280;41573;51.446;-2.018;2023-01-01T13:34:30;96099.34;;;9.84;100.00
55679;BME280;41573;51.446;-2.018;2023-01-01T13:45:23;96029.22;;;9.72;100.00
55679;BME280;41573;51.446;-2.018;2023-01-01T14:07:12;95845.13;;;9.78;100.00
55679;BME280;41573;51.446;-2.018;2023-01-01T14:09:41;95840.81;;;9.77;100.00
55679;BME280;41573;51.446;-2.018;2023-01-01T14:12:17;95822.84;;;9.79;100.00
55679;BME280;41573;51.446;-2.018;2023-01-01T14:14:44;95813.84;;;9.80;100.00
55679;BME280;41573;51.446;-2.018;2023-01-01T14:17:13;95799.97;;;9.78;100.00
55679;BME280;41573;51.446;-2.018;2023-01-01T14:19:39;95792.22;;;9.83;100.00
55679;BME280;41573;51.446;-2.018;2023-01-01T14:22:10;95782.81;;;9.81;100.00
55679;BME280;41573;51.446;-2.018;2023-01-01T14:24:43;95771.38;;;9.74;100.00
55679;BME280;41573;51.446;-2.018;2023-01-01T14:27:12;95767.06;;;9.79;100.00
55679;BME280;41573;51.446;-2.018;2023-01-01T14:29:40;95750.28;;;9.79;100.00
55679;BME280;41573;51.446;-2.018;2023-01-01T14:32:13;95739.06;;;9.83;100.00
55679;BME280;41573;51.446;-2.018;2023-01-01T14:34:39;95734.97;;;9.81;100.00
55679;BME280;41573;51.446;-2.018;2023-01-01T14:37:18;95722.09;;;9.84;100.00
55679;BME280;41573;51.446;-2.018;2023-01-01T14:39:45;95711.88;;;9.81;100.00
55679;BME280;41573;51.446;-2.018;2023-01-01T14:42:14;95706.97;;;9.85;100.00
55679;BME280;41573;51.446;-2.018;2023-01-01T14:44:42;95709.84;;;9.83;100.00
55679;BME280;41573;51.446;-2.018;2023-01-01T14:47:23;95683.66;;;9.80;100.00
55679;BME280;41573;51.446;-2.018;2023-01-01T14:49:50;95668.78;;;9.79;100.00
55679;BME280;41573;51.446;-2.018;2023-01-01T14:52:24;95657.94;;;9.81;100.00
55679;BME280;41573;51.446;-2.018;2023-01-01T14:54:52;95651.19;;;9.78;100.00
55679;BME280;41573;51.446;-2.018;2023-01-01T14:57:24;95648.13;;;9.75;100.00
55679;BME280;41573;51.446;-2.018;2023-01-01T14:59:51;95644.47;;;9.76;100.00
55679;BME280;41573;51.446;-2.018;2023-01-01T15:02:23;95633.84;;;9.76;100.00
55679;BME280;41573;51.446;-2.018;2023-01-01T15:04:49;95641.81;;;9.69;100.00
55679;BME280;41573;51.446;-2.018;2023-01-01T15:07:26;95643.66;;;9.75;100.00
55679;BME280;41573;51.446;-2.018;2023-01-01T15:09:54;95637.50;;;9.75;100.00
55679;BME280;41573;51.446;-2.018;2023-01-01T15:12:20;95644.06;;;9.72;100.00
55679;BME280;41573;51.446;-2.018;2023-01-01T15:14:48;95636.91;;;9.66;100.00
55679;BME280;41573;51.446;-2.018;2023-01-01T15:17:17;95634.69;;;9.70;100.00
55679;BME280;41573;51.446;-2.018;2023-01-01T15:19:44;95636.31;;;9.64;100.00